Time;durP1;ratioP1;P1;durP2;ratioP2;P2;SDS_P1;SDS_P2;PMS_P1;PMS_P2;Temp;Humidity;BMP_temperature;BMP_pressure;BME280_temperature;BME280_humidity;BME280_pressure;Samples;Min_cycle;Max_cycle;Signal;HPM_P1;HPM_P2
2023/01/31 00:01:22;;;;;;;19.30;4.15;;;5.50;99.90;;;;;;4081900;29;20043;-67
2023/01/31 00:03:22;;;;;;;22.08;4.40;;;5.50;99.90;;;;;;4082736;29;20607;-68
2023/01/31 00:05:24;;;;;;;18.88;4.15;;;5.50;99.90;;;;;;4078875;29;20044;-68
2023/01/31 00:07:25;;;;;;;17.73;3.72;;;5.50;99.90;;;;;;4082646;29;20048;-68
2023/01/31 00:09:26;;;;;;;19.85;4.45;;;5.60;99.90;;;;;;4085707;29;20139;-67
2023/01/31 00:11:28;;;;;;;19.08;4.40;;;5.60;99.90;;;;;;4083065;28;20114;-68
2023/01/31 00:13:28;;;;;;;25.20;4.75;;;5.60;99.90;;;;;;4081867;29;20514;-67
2023/01/31 00:15:29;;;;;;;17.15;4.25;;;5.60;99.90;;;;;;4081463;29;20059;-68
2023/01/31 00:17:30;;;;;;;12.18;4.07;;;5.50;99.90;;;;;;4082310;29;20048;-68
2023/01/31 00:19:30;;;;;;;16.92;3.67;;;5.60;99.90;;;;;;4082731;29;20050;-68
2023/01/31 00:21:31;;;;;;;17.63;4.07;;;5.60;99.90;;;;;;4078917;29;20040;-68
2023/01/31 00:23:32;;;;;;;18.90;5.13;;;5.60;99.90;;;;;;4081347;29;20090;-68
2023/01/31 00:25:32;;;;;;;28.17;5.85;;;5.60;99.90;;;;;;4080010;29;20052;-68
2023/01/31 00:27:33;;;;;;;21.90;4.40;;;5.60;99.90;;;;;;4078752;29;20061;-68
2023/01/31 00:29:33;;;;;;;14.93;3.47;;;5.50;99.90;;;;;;4085794;29;20031;-67
2023/01/31 00:31:34;;;;;;;15.07;3.58;;;5.50;99.90;;;;;;4081628;29;20554;-68
2023/01/31 00:33:36;;;;;;;14.18;3.58;;;5.50;99.90;;;;;;4077847;29;20039;-68
2023/01/31 00:35:38;;;;;;;20.95;4.40;;;5.50;99.90;;;;;;4078165;29;20032;-68
2023/01/31 00:37:39;;;;;;;14.23;2.95;;;5.50;99.90;;;;;;4076150;29;24435;-68
2023/01/31 00:39:40;;;;;;;18.38;3.17;;;5.50;99.90;;;;;;4066913;29;20534;-68
2023/01/31 00:41:40;;;;;;;14.65;3.63;;;5.50;99.90;;;;;;4084740;28;20033;-68
2023/01/31 00:43:41;;;;;;;13.57;3.20;;;5.50;99.90;;;;;;4081395;28;20023;-68
2023/01/31 00:45:41;;;;;;;15.18;3.03;;;5.50;99.90;;;;;;4084814;28;20086;-68
2023/01/31 00:47:42;;;;;;;18.40;3.92;;;5.50;99.90;;;;;;4063647;29;20131;-68
2023/01/31 00:49:42;;;;;;;18.33;3.58;;;5.50;99.90;;;;;;4082588;28;20032;-68
2023/01/31 00:51:43;;;;;;;15.50;3.50;;;5.50;99.90;;;;;;4081044;28;20027;-68
2023/01/31 00:53:44;;;;;;;9.13;3.33;;;5.50;99.90;;;;;;4077594;28;20059;-68
2023/01/31 00:55:44;;;;;;;16.95;3.50;;;5.50;99.90;;;;;;4077261;29;20487;-68
2023/01/31 00:57:45;;;;;;;15.35;3.60;;;5.40;99.90;;;;;;4077671;29;20451;-68
2023/01/31 00:59:46;;;;;;;15.88;3.50;;;5.40;99.90;;;;;;4079068;28;20383;-69
2023/01/31 01:01:46;;;;;;;20.20;3.65;;;5.30;99.90;;;;;;4079409;29;20032;-68
2023/01/31 01:03:47;;;;;;;11.32;2.83;;;5.30;99.90;;;;;;4081123;29;20493;-68
2023/01/31 01:05:48;;;;;;;10.98;3.58;;;5.30;99.90;;;;;;4080801;29;20039;-68
2023/01/31 01:07:49;;;;;;;14.70;3.40;;;5.30;99.90;;;;;;4077247;28;20035;-68
2023/01/31 01:09:51;;;;;;;13.98;3.42;;;5.30;99.90;;;;;;4096745;28;20027;-68
2023/01/31 01:11:51;;;;;;;10.85;3.33;;;5.30;99.90;;;;;;4096987;28;20027;-68
2023/01/31 01:13:53;;;;;;;11.15;3.17;;;5.30;99.90;;;;;;4096908;28;20034;-68
2023/01/31 01:15:53;;;;;;;12.05;3.20;;;5.30;99.90;;;;;;4093667;28;20165;-67
2023/01/31 01:17:55;;;;;;;8.13;2.75;;;5.30;99.90;;;;;;4093558;28;20047;-68
2023/01/31 01:19:55;;;;;;;16.88;3.50;;;5.30;99.90;;;;;;4082451;28;20443;-68
2023/01/31 01:21:57;;;;;;;20.92;3.65;;;5.20;99.90;;;;;;4092706;28;20035;-68
2023/01/31 01:24:00;;;;;;;17.75;3.78;;;5.20;99.90;;;;;;4097007;28;20070;-68
2023/01/31 01:26:01;;;;;;;14.98;3.28;;;5.20;99.90;;;;;;4093122;28;20039;-67
2023/01/31 01:28:01;;;;;;;17.13;3.90;;;5.10;99.90;;;;;;4093266;28;20471;-67
2023/01/31 01:30:03;;;;;;;11.10;3.50;;;5.10;99.90;;;;;;4094968;28;20501;-68
2023/01/31 01:32:05;;;;;;;22.48;5.07;;;5.20;99.90;;;;;;4089379;29;20042;-68
2023/01/31 01:34:10;;;;;;;15.55;3.78;;;5.10;99.90;;;;;;4097722;28;20039;-68
2023/01/31 01:36:16;;;;;;;13.82;3.30;;;5.10;99.90;;;;;;4091586;28;20031;-68
2023/01/31 01:38:17;;;;;;;15.35;3.30;;;5.10;99.90;;;;;;4094242;28;20487;-68
2023/01/31 01:40:17;;;;;;;17.40;3.83;;;5.10;99.90;;;;;;4093458;28;20482;-68
2023/01/31 01:42:21;;;;;;;14.27;3.78;;;5.00;99.90;;;;;;4096825;28;20034;-68
2023/01/31 01:44:51;;;;;;;14.75;4.07;;;5.00;99.90;;;;;;4092704;28;20039;-67
2023/01/31 01:46:52;;;;;;;18.42;4.35;;;5.00;99.90;;;;;;4091429;28;20057;-68
2023/01/31 01:49:22;;;;;;;20.45;4.13;;;5.00;99.90;;;;;;4101503;28;20045;-68
2023/01/31 01:51:23;;;;;;;10.10;2.95;;;5.00;99.90;;;;;;4100407;28;20043;-68
2023/01/31 01:53:27;;;;;;;17.83;3.70;;;5.00;99.90;;;;;;4102173;28;20032;-68
2023/01/31 01:55:31;;;;;;;15.73;3.25;;;5.00;99.90;;;;;;4100111;28;20090;-67
2023/01/31 01:57:36;;;;;;;10.95;3.15;;;4.90;99.90;;;;;;4101384;28;20078;-68
2023/01/31 01:59:53;;;;;;;12.27;3.20;;;4.90;99.90;;;;;;4102515;28;20031;-68
2023/01/31 02:01:55;;;;;;;16.73;3.95;;;4.90;99.90;;;;;;4099414;28;20043;-67
2023/01/31 02:03:56;;;;;;;16.63;3.90;;;4.90;99.90;;;;;;4103866;28;20111;-68
2023/01/31 02:06:00;;;;;;;13.18;4.00;;;4.80;99.90;;;;;;4097805;28;20495;-68
2023/01/31 02:08:02;;;;;;;12.43;3.20;;;4.90;99.90;;;;;;4100076;28;20106;-68
2023/01/31 02:10:21;;;;;;;21.98;4.32;;;4.80;99.90;;;;;;4105083;28;20499;-69
2023/01/31 02:12:23;;;;;;;18.45;3.30;;;4.80;99.90;;;;;;4099038;28;20050;-68
2023/01/31 02:14:24;;;;;;;12.98;3.15;;;4.90;99.90;;;;;;4100488;28;20183;-68
2023/01/31 02:16:25;;;;;;;15.38;3.35;;;4.90;99.90;;;;;;4098822;28;20041;-68
2023/01/31 02:18:26;;;;;;;16.17;3.75;;;4.80;99.90;;;;;;4100472;28;20039;-67
2023/01/31 02:20:36;;;;;;;15.95;4.18;;;4.80;99.90;;;;;;4099317;28;20047;-68
2023/01/31 02:22:52;;;;;;;17.33;3.35;;;4.80;99.90;;;;;;4101954;28;20051;-67
2023/01/31 02:25:25;;;;;;;16.65;3.13;;;4.80;99.90;;;;;;4099767;28;20372;-67
2023/01/31 02:27:59;;;;;;;11.38;3.22;;;4.80;99.90;;;;;;4097924;28;20046;-68
2023/01/31 02:30:25;;;;;;;14.80;3.88;;;4.80;99.90;;;;;;4101131;28;20106;-68
2023/01/31 02:32:43;;;;;;;18.60;4.30;;;4.80;99.90;;;;;;4098460;28;20109;-67
2023/01/31 02:35:14;;;;;;;25.55;5.00;;;4.80;99.90;;;;;;4095201;28;20035;-67
2023/01/31 02:37:40;;;;;;;14.05;3.75;;;4.70;99.90;;;;;;4084975;29;20046;-68
2023/01/31 02:40:09;;;;;;;15.82;3.53;;;4.70;99.90;;;;;;4098068;28;20132;-68
2023/01/31 02:42:37;;;;;;;17.30;3.67;;;4.80;99.90;;;;;;4098239;28;20062;-68
2023/01/31 02:45:00;;;;;;;10.02;2.90;;;4.70;99.90;;;;;;4095869;28;20074;-68
2023/01/31 02:47:24;;;;;;;14.52;3.65;;;4.80;99.90;;;;;;4092819;28;20453;-67
2023/01/31 02:49:45;;;;;;;13.15;3.60;;;4.80;99.90;;;;;;4098829;28;20482;-68
2023/01/31 02:52:15;;;;;;;14.05;4.18;;;4.80;99.90;;;;;;4101568;28;20386;-68
2023/01/31 02:54:17;;;;;;;15.55;4.22;;;4.70;99.90;;;;;;4097495;28;20545;-69
2023/01/31 02:56:29;;;;;;;19.25;4.53;;;4.70;99.90;;;;;;4100403;28;20296;-68
2023/01/31 02:58:34;;;;;;;19.23;3.83;;;4.70;99.90;;;;;;4096430;28;20503;-68
2023/01/31 03:00:38;;;;;;;12.73;3.60;;;4.70;99.90;;;;;;4096237;29;20035;-67
2023/01/31 03:02:39;;;;;;;15.95;3.85;;;4.80;99.90;;;;;;4097395;28;20085;-68
2023/01/31 03:04:41;;;;;;;18.85;4.35;;;4.80;99.90;;;;;;4094250;28;20444;-68
2023/01/31 03:06:59;;;;;;;23.17;5.28;;;4.80;99.90;;;;;;4078906;29;20040;-67
2023/01/31 03:09:23;;;;;;;19.95;4.78;;;4.80;99.90;;;;;;4080904;29;20083;-68
2023/01/31 03:11:53;;;;;;;20.35;5.20;;;4.80;99.90;;;;;;4093686;28;20398;-67
2023/01/31 03:14:15;;;;;;;20.35;4.82;;;4.80;99.90;;;;;;4098221;28;20468;-68
2023/01/31 03:19:04;;;;;;;15.43;4.60;;;4.70;99.90;;;;;;4087757;28;20035;-67
2023/01/31 03:21:14;;;;;;;22.60;5.55;;;4.70;99.90;;;;;;4095724;28;20035;-67
2023/01/31 03:23:28;;;;;;;18.23;4.78;;;4.70;99.90;;;;;;4097169;28;20035;-68
2023/01/31 03:25:33;;;;;;;29.75;6.82;;;4.70;99.90;;;;;;4092855;28;20041;-67
2023/01/31 03:27:34;;;;;;;21.85;5.25;;;4.70;99.90;;;;;;4096782;28;20367;-68
2023/01/31 03:29:37;;;;;;;16.40;4.65;;;4.70;99.90;;;;;;4094636;28;20066;-68
2023/01/31 03:31:42;;;;;;;17.05;5.18;;;4.70;99.90;;;;;;4096515;28;20031;-68
2023/01/31 03:33:47;;;;;;;14.57;4.38;;;4.70;99.90;;;;;;4078874;28;20063;-68
2023/01/31 03:35:55;;;;;;;18.33;5.22;;;4.70;99.90;;;;;;4095373;28;20039;-68
2023/01/31 03:38:05;;;;;;;17.48;5.40;;;4.70;99.90;;;;;;4094787;28;20115;-67
2023/01/31 03:40:29;;;;;;;20.92;5.30;;;4.70;99.90;;;;;;4095734;28;20059;-68
2023/01/31 03:42:39;;;;;;;19.13;5.22;;;4.70;99.90;;;;;;4094097;28;20043;-68
2023/01/31 03:45:04;;;;;;;26.23;6.88;;;4.70;99.90;;;;;;4097098;28;20592;-68
2023/01/31 03:47:22;;;;;;;27.77;7.25;;;4.70;99.90;;;;;;4087642;28;20795;-67
2023/01/31 03:49:26;;;;;;;22.98;6.88;;;4.70;99.90;;;;;;4095548;28;20028;-67
2023/01/31 03:51:30;;;;;;;25.02;6.93;;;4.70;99.90;;;;;;4094233;28;20051;-67
2023/01/31 03:53:37;;;;;;;26.52;6.45;;;4.70;99.90;;;;;;4093687;28;20043;-68
2023/01/31 03:55:52;;;;;;;28.23;7.70;;;4.70;99.90;;;;;;4090882;28;20035;-68
2023/01/31 03:57:54;;;;;;;20.02;6.90;;;4.70;99.90;;;;;;4095180;28;20129;-68
2023/01/31 03:59:58;;;;;;;18.85;7.50;;;4.60;99.90;;;;;;4093198;28;20031;-67
2023/01/31 04:02:00;;;;;;;24.38;6.97;;;4.60;99.90;;;;;;4094964;28;20166;-67
2023/01/31 04:04:07;;;;;;;22.33;7.25;;;4.60;99.90;;;;;;4096220;28;20019;-68
2023/01/31 04:06:09;;;;;;;25.25;8.90;;;4.60;99.90;;;;;;4094974;28;20028;-68
2023/01/31 04:08:10;;;;;;;24.38;7.15;;;4.60;99.90;;;;;;4094106;28;20091;-68
2023/01/31 04:10:15;;;;;;;21.88;7.78;;;4.60;99.90;;;;;;4074356;29;20023;-69
2023/01/31 04:12:16;;;;;;;23.00;6.80;;;4.60;99.90;;;;;;4093229;28;20039;-68
2023/01/31 04:14:17;;;;;;;23.27;7.47;;;4.60;99.90;;;;;;4093272;28;20166;-68
2023/01/31 04:16:18;;;;;;;24.45;7.40;;;4.60;99.90;;;;;;4097098;28;20027;-68
2023/01/31 04:18:19;;;;;;;25.42;7.57;;;4.60;99.90;;;;;;4094410;28;20378;-68
2023/01/31 04:20:20;;;;;;;20.88;7.30;;;4.60;99.90;;;;;;4093882;28;20066;-68
2023/01/31 04:22:20;;;;;;;22.83;7.78;;;4.60;99.90;;;;;;4096629;28;20047;-68
2023/01/31 04:24:21;;;;;;;25.13;7.03;;;4.60;99.90;;;;;;4094904;28;20107;-68
2023/01/31 04:26:22;;;;;;;17.70;6.20;;;4.60;99.90;;;;;;4093145;28;20085;-68
2023/01/31 04:28:22;;;;;;;21.13;7.30;;;4.70;99.90;;;;;;4095157;28;20050;-68
2023/01/31 04:30:23;;;;;;;22.70;6.85;;;4.60;99.90;;;;;;4091511;28;20399;-68
2023/01/31 04:32:23;;;;;;;29.65;6.72;;;4.60;99.90;;;;;;4094461;28;20039;-67
2023/01/31 04:34:24;;;;;;;19.83;7.03;;;4.70;99.90;;;;;;4092623;28;20043;-68
2023/01/31 04:36:25;;;;;;;28.15;7.22;;;4.70;99.90;;;;;;4096010;28;20026;-68
2023/01/31 04:38:25;;;;;;;15.57;6.18;;;4.70;99.90;;;;;;4095264;28;20042;-67
2023/01/31 04:40:26;;;;;;;19.52;6.53;;;4.70;99.90;;;;;;4092111;28;20094;-67
2023/01/31 04:42:27;;;;;;;21.92;5.97;;;4.70;99.90;;;;;;4093711;28;20122;-68
2023/01/31 04:44:27;;;;;;;26.50;5.88;;;4.80;99.90;;;;;;4093743;28;20390;-67
2023/01/31 04:46:28;;;;;;;18.50;6.45;;;4.80;99.90;;;;;;4089841;28;20032;-68
2023/01/31 04:48:29;;;;;;;22.05;6.30;;;4.80;99.90;;;;;;4096050;28;20031;-68
2023/01/31 04:50:29;;;;;;;18.38;6.72;;;4.80;99.90;;;;;;4093031;28;20039;-68
2023/01/31 04:52:30;;;;;;;19.48;5.65;;;4.90;99.90;;;;;;4095661;28;20046;-67
2023/01/31 04:54:30;;;;;;;21.33;5.72;;;4.80;99.90;;;;;;4096228;28;20694;-68
2023/01/31 04:56:31;;;;;;;18.25;6.60;;;4.90;99.90;;;;;;4097992;28;20112;-68
2023/01/31 04:58:32;;;;;;;17.73;6.32;;;4.90;99.90;;;;;;4075347;29;20043;-69
2023/01/31 05:00:33;;;;;;;19.63;6.05;;;4.90;99.90;;;;;;4093798;28;20031;-67
2023/01/31 05:02:33;;;;;;;23.35;6.70;;;4.90;99.90;;;;;;4096097;28;20059;-68
2023/01/31 05:04:34;;;;;;;24.77;6.75;;;4.90;99.90;;;;;;4093555;28;20423;-68
2023/01/31 05:06:34;;;;;;;18.42;5.95;;;5.00;99.90;;;;;;4092089;28;20044;-68
2023/01/31 05:08:35;;;;;;;20.95;6.53;;;4.90;99.90;;;;;;4097146;28;20121;-68
2023/01/31 05:10:36;;;;;;;20.25;6.60;;;4.90;99.90;;;;;;4095165;28;21516;-68
2023/01/31 05:12:36;;;;;;;28.58;7.13;;;4.90;99.90;;;;;;4093549;28;20046;-68
2023/01/31 05:14:37;;;;;;;26.08;6.72;;;4.90;99.90;;;;;;4090115;28;20039;-68
2023/01/31 05:16:37;;;;;;;23.35;7.25;;;4.90;99.90;;;;;;4093519;28;20053;-68
2023/01/31 05:18:38;;;;;;;18.05;6.47;;;4.90;99.90;;;;;;4090163;28;20359;-68
2023/01/31 05:20:39;;;;;;;16.60;6.35;;;4.90;99.90;;;;;;4091969;28;20031;-68
2023/01/31 05:22:40;;;;;;;23.35;6.68;;;4.90;99.90;;;;;;4094803;28;20074;-68
2023/01/31 05:24:42;;;;;;;26.25;7.95;;;4.90;99.90;;;;;;4093368;28;20031;-68
2023/01/31 05:26:42;;;;;;;26.25;6.93;;;4.90;99.90;;;;;;4094525;28;20049;-68
2023/01/31 05:28:43;;;;;;;19.10;6.43;;;4.90;99.90;;;;;;4093956;28;25363;-68
2023/01/31 05:30:44;;;;;;;24.42;7.25;;;5.00;99.90;;;;;;4091494;28;20368;-68
2023/01/31 05:32:46;;;;;;;29.98;7.45;;;4.90;99.90;;;;;;4096189;28;20031;-68
2023/01/31 05:34:46;;;;;;;25.48;6.50;;;4.90;99.90;;;;;;4091126;28;20308;-68
2023/01/31 05:36:47;;;;;;;24.45;6.78;;;4.90;99.90;;;;;;4092602;28;20039;-68
2023/01/31 05:38:49;;;;;;;26.25;7.35;;;4.90;99.90;;;;;;4095383;28;20032;-67
2023/01/31 05:40:50;;;;;;;27.02;7.18;;;4.90;99.90;;;;;;4078844;28;20040;-68
2023/01/31 05:42:55;;;;;;;29.60;8.02;;;4.90;99.90;;;;;;4094141;28;20402;-68
2023/01/31 05:44:56;;;;;;;28.65;7.97;;;4.90;99.90;;;;;;4094402;28;20034;-68
2023/01/31 05:46:56;;;;;;;28.27;8.20;;;4.90;99.90;;;;;;4091226;28;20483;-68
2023/01/31 05:48:57;;;;;;;26.67;7.53;;;4.90;99.90;;;;;;4092029;28;20047;-67
2023/01/31 05:50:58;;;;;;;35.40;9.10;;;4.90;99.90;;;;;;4091344;28;20040;-69
2023/01/31 05:52:59;;;;;;;25.08;7.10;;;4.90;99.90;;;;;;4092923;28;20055;-67
2023/01/31 05:55:00;;;;;;;25.98;8.38;;;5.00;99.90;;;;;;4087637;28;20327;-67
2023/01/31 05:57:00;;;;;;;22.08;7.22;;;5.00;99.90;;;;;;4094390;28;20565;-68
2023/01/31 05:59:02;;;;;;;27.27;7.22;;;5.00;99.90;;;;;;4083491;28;20075;-68
2023/01/31 06:01:02;;;;;;;22.83;7.45;;;5.00;99.90;;;;;;4091698;28;20486;-67
2023/01/31 06:03:03;;;;;;;24.50;7.20;;;5.00;99.90;;;;;;4094866;28;20038;-68
2023/01/31 06:05:04;;;;;;;27.23;8.52;;;4.90;99.90;;;;;;4089961;28;20047;-68
2023/01/31 06:07:04;;;;;;;28.10;8.00;;;5.00;99.90;;;;;;4090023;28;20031;-68
2023/01/31 06:09:05;;;;;;;25.48;7.40;;;4.90;99.90;;;;;;4082317;28;20083;-68
2023/01/31 06:11:06;;;;;;;25.80;7.45;;;5.00;99.90;;;;;;4077187;29;20071;-68
2023/01/31 06:13:06;;;;;;;20.33;6.72;;;5.00;99.90;;;;;;4078251;29;20035;-67
2023/01/31 06:15:07;;;;;;;21.27;7.47;;;4.90;99.90;;;;;;4078518;28;20027;-70
2023/01/31 06:17:08;;;;;;;27.15;7.50;;;5.00;99.90;;;;;;4077791;29;20035;-68
2023/01/31 06:19:09;;;;;;;23.52;7.63;;;4.90;99.90;;;;;;4079855;29;20099;-68
2023/01/31 06:21:10;;;;;;;32.60;9.18;;;5.00;99.90;;;;;;4078926;29;20047;-68
2023/01/31 06:23:11;;;;;;;28.23;8.63;;;5.00;99.90;;;;;;4072531;29;20040;-67
2023/01/31 06:25:12;;;;;;;22.90;7.30;;;5.00;99.90;;;;;;4075531;29;20035;-67
2023/01/31 06:27:12;;;;;;;31.15;8.77;;;5.00;99.90;;;;;;4077129;29;20048;-68
2023/01/31 06:29:13;;;;;;;23.63;7.85;;;5.00;99.90;;;;;;4078574;29;20052;-68
2023/01/31 06:31:13;;;;;;;24.58;7.40;;;5.00;99.90;;;;;;4081584;29;20039;-68
2023/01/31 06:33:15;;;;;;;21.15;7.55;;;5.00;99.90;;;;;;4078799;29;20039;-67
2023/01/31 06:35:15;;;;;;;23.95;7.22;;;5.00;99.90;;;;;;4077310;29;20040;-68
2023/01/31 06:37:16;;;;;;;20.27;7.78;;;5.10;99.90;;;;;;4082278;29;20372;-68
2023/01/31 06:39:16;;;;;;;28.60;8.05;;;5.10;99.90;;;;;;4084843;28;20122;-69
2023/01/31 06:41:20;;;;;;;24.77;7.45;;;5.10;99.90;;;;;;4080446;29;20048;-69
2023/01/31 06:43:21;;;;;;;23.10;8.00;;;5.10;99.90;;;;;;4083713;28;20072;-68
2023/01/31 06:45:21;;;;;;;22.52;8.07;;;5.10;99.90;;;;;;4082332;29;20035;-68
2023/01/31 06:47:22;;;;;;;23.75;7.97;;;5.00;99.90;;;;;;4079356;28;20141;-68
2023/01/31 06:49:23;;;;;;;22.45;7.35;;;5.10;99.90;;;;;;4075469;29;20040;-68
2023/01/31 06:51:23;;;;;;;26.05;8.10;;;5.00;99.90;;;;;;4079190;28;20040;-68
2023/01/31 06:53:24;;;;;;;23.30;6.85;;;5.10;99.90;;;;;;4082046;28;20039;-68
2023/01/31 06:55:25;;;;;;;22.35;8.05;;;5.10;99.90;;;;;;4078524;28;20042;-67
2023/01/31 06:57:25;;;;;;;22.70;8.75;;;5.10;99.90;;;;;;4075366;29;20062;-68
2023/01/31 06:59:26;;;;;;;27.42;8.57;;;5.10;99.90;;;;;;4072823;29;20102;-68
2023/01/31 07:01:27;;;;;;;24.42;7.78;;;5.10;99.90;;;;;;4074443;29;20043;-68
2023/01/31 07:03:27;;;;;;;22.33;7.80;;;5.10;99.90;;;;;;4073346;29;20039;-68
2023/01/31 07:05:28;;;;;;;19.42;6.50;;;5.10;99.90;;;;;;4073287;29;20054;-69
2023/01/31 07:07:28;;;;;;;21.27;6.68;;;5.10;99.90;;;;;;4061735;29;20044;-70
2023/01/31 07:09:29;;;;;;;30.50;8.13;;;5.10;99.90;;;;;;4086914;28;20107;-69
2023/01/31 07:11:30;;;;;;;25.38;7.22;;;5.10;99.90;;;;;;4090165;28;20384;-68
2023/01/31 07:13:31;;;;;;;27.27;8.48;;;5.10;99.90;;;;;;4091945;28;20047;-69
2023/01/31 07:15:31;;;;;;;23.50;7.78;;;5.00;99.90;;;;;;4089573;28;20115;-68
2023/01/31 07:17:32;;;;;;;23.88;7.50;;;5.10;99.90;;;;;;4090845;28;20058;-68
2023/01/31 07:19:32;;;;;;;23.27;7.97;;;5.00;99.90;;;;;;4090431;28;20031;-68
2023/01/31 07:21:34;;;;;;;28.88;7.57;;;5.00;99.90;;;;;;4087440;28;20035;-67
2023/01/31 07:23:35;;;;;;;23.58;8.20;;;5.00;99.90;;;;;;4072201;29;20485;-67
2023/01/31 07:25:36;;;;;;;26.88;7.38;;;5.10;99.90;;;;;;4089309;28;20055;-68
2023/01/31 07:27:36;;;;;;;24.17;7.72;;;5.10;99.90;;;;;;4091778;28;20035;-67
2023/01/31 07:29:37;;;;;;;23.67;7.13;;;5.10;99.90;;;;;;4090640;28;20172;-68
2023/01/31 07:31:38;;;;;;;23.92;7.57;;;5.10;99.90;;;;;;4090915;28;20047;-68
2023/01/31 07:33:39;;;;;;;24.63;7.63;;;5.10;99.90;;;;;;4090365;28;20039;-68
2023/01/31 07:35:43;;;;;;;29.08;7.65;;;5.10;99.90;;;;;;4090952;28;20036;-68
2023/01/31 07:37:44;;;;;;;21.60;6.72;;;5.10;99.90;;;;;;4089257;28;20373;-67
2023/01/31 07:39:45;;;;;;;30.35;7.68;;;5.10;99.90;;;;;;4089370;28;24574;-68
2023/01/31 07:41:45;;;;;;;24.90;7.53;;;5.10;99.90;;;;;;4089789;28;20036;-68
2023/01/31 07:43:46;;;;;;;21.10;6.97;;;5.10;99.90;;;;;;4089598;28;20051;-68
2023/01/31 07:45:47;;;;;;;23.17;7.15;;;5.20;99.90;;;;;;4088019;28;20035;-68
2023/01/31 07:47:47;;;;;;;28.45;7.22;;;5.20;99.90;;;;;;4086793;28;20779;-68
2023/01/31 07:49:49;;;;;;;24.67;7.00;;;5.20;99.90;;;;;;4068558;29;20784;-68
2023/01/31 07:51:50;;;;;;;24.77;6.88;;;5.30;99.90;;;;;;4087833;28;20126;-68
2023/01/31 07:53:50;;;;;;;24.88;7.45;;;5.20;99.90;;;;;;4090944;28;20739;-68
2023/01/31 07:55:51;;;;;;;21.88;7.38;;;5.20;99.90;;;;;;4086834;28;20043;-68
2023/01/31 07:57:51;;;;;;;23.88;6.93;;;5.20;99.90;;;;;;4088780;28;20027;-68
2023/01/31 07:59:52;;;;;;;28.42;6.78;;;5.30;99.90;;;;;;4083126;28;20047;-68
2023/01/31 08:04:14;;;;;;;22.65;6.13;;;5.40;99.90;;;;;;4088975;28;20031;-68
2023/01/31 08:06:15;;;;;;;20.77;6.05;;;5.40;99.90;;;;;;4090547;28;20260;-68
2023/01/31 08:08:15;;;;;;;23.60;6.80;;;5.40;99.90;;;;;;4089751;28;20047;-68
2023/01/31 08:10:16;;;;;;;16.52;5.38;;;5.40;99.90;;;;;;4089666;28;20040;-68
2023/01/31 08:12:17;;;;;;;19.73;6.13;;;5.40;99.90;;;;;;4090273;28;20478;-68
2023/01/31 08:14:22;;;;;;;18.23;5.85;;;5.50;99.90;;;;;;4090810;28;20773;-68
2023/01/31 08:16:23;;;;;;;25.25;7.13;;;5.50;99.90;;;;;;4089335;28;20560;-68
2023/01/31 08:18:24;;;;;;;19.75;5.45;;;5.50;99.90;;;;;;4088640;28;20558;-68
2023/01/31 08:20:25;;;;;;;14.60;5.03;;;5.50;99.90;;;;;;4080730;28;20043;-69
2023/01/31 08:22:25;;;;;;;14.75;4.70;;;5.60;99.90;;;;;;4088532;28;20050;-68
2023/01/31 08:24:26;;;;;;;20.83;6.53;;;5.60;99.90;;;;;;4089092;28;20035;-69
2023/01/31 08:26:26;;;;;;;18.25;5.65;;;5.60;99.90;;;;;;4089585;28;20118;-69
2023/01/31 08:28:27;;;;;;;16.08;5.60;;;5.60;99.90;;;;;;4085513;29;20115;-68
2023/01/31 08:30:28;;;;;;;17.30;5.65;;;5.60;99.90;;;;;;4085196;28;20046;-68
2023/01/31 08:32:29;;;;;;;26.23;6.53;;;5.60;99.90;;;;;;4090301;29;20042;-69
2023/01/31 08:34:29;;;;;;;23.27;5.70;;;5.60;99.90;;;;;;4086925;28;20034;-69
2023/01/31 08:36:34;;;;;;;19.48;5.22;;;5.60;99.90;;;;;;4089959;28;20082;-69
2023/01/31 08:38:35;;;;;;;14.45;4.60;;;5.60;99.90;;;;;;4090318;28;20038;-68
2023/01/31 08:40:35;;;;;;;23.02;5.47;;;5.60;99.90;;;;;;4081002;28;20441;-68
2023/01/31 08:42:37;;;;;;;18.00;4.63;;;5.60;99.90;;;;;;4083167;28;20135;-68
2023/01/31 08:44:38;;;;;;;14.73;4.80;;;5.70;99.90;;;;;;4086002;28;20039;-68
2023/01/31 08:46:39;;;;;;;16.35;5.20;;;5.70;99.90;;;;;;4089279;28;20095;-68
2023/01/31 08:48:41;;;;;;;17.30;5.65;;;5.70;99.90;;;;;;4088088;28;20035;-68
2023/01/31 08:50:41;;;;;;;15.70;5.23;;;5.70;99.90;;;;;;4089813;28;20045;-68
2023/01/31 08:52:42;;;;;;;20.58;4.40;;;5.70;99.90;;;;;;4089489;28;20295;-68
2023/01/31 08:54:43;;;;;;;21.90;5.47;;;5.70;99.90;;;;;;4088701;28;20094;-68
2023/01/31 08:56:43;;;;;;;16.30;4.63;;;5.80;99.90;;;;;;4089821;28;20047;-68
2023/01/31 08:58:44;;;;;;;22.70;6.05;;;5.80;99.90;;;;;;4089517;28;20123;-68
2023/01/31 09:00:44;;;;;;;23.75;5.13;;;5.80;99.90;;;;;;4084817;28;20098;-68
2023/01/31 09:02:57;;;;;;;19.02;5.30;;;5.80;99.90;;;;;;4077528;28;20086;-68
2023/01/31 09:04:57;;;;;;;15.40;4.57;;;5.80;99.90;;;;;;4075609;28;20031;-69
2023/01/31 09:06:58;;;;;;;24.50;5.43;;;5.90;99.90;;;;;;4079321;29;20142;-68
2023/01/31 09:08:58;;;;;;;14.75;4.40;;;5.90;99.90;;;;;;4081097;28;20044;-68
2023/01/31 09:10:59;;;;;;;22.70;5.47;;;5.90;99.90;;;;;;4070205;29;20024;-69
2023/01/31 09:13:00;;;;;;;18.77;5.32;;;5.90;99.90;;;;;;4072627;29;20134;-68
2023/01/31 09:15:02;;;;;;;28.50;5.95;;;5.90;99.90;;;;;;4071664;29;20028;-68
2023/01/31 09:17:03;;;;;;;17.38;5.28;;;5.90;99.90;;;;;;4065223;29;20143;-69
2023/01/31 09:19:03;;;;;;;15.70;4.20;;;5.90;99.90;;;;;;4077134;28;20269;-68
2023/01/31 09:21:10;;;;;;;14.68;4.47;;;6.00;99.90;;;;;;4075129;28;20396;-69
2023/01/31 09:23:11;;;;;;;16.38;4.13;;;5.90;99.90;;;;;;4072186;29;20842;-68
2023/01/31 09:25:11;;;;;;;19.45;4.85;;;6.00;99.90;;;;;;4069328;29;20043;-69
2023/01/31 09:27:12;;;;;;;18.17;4.25;;;6.00;99.90;;;;;;4063766;28;20099;-68
2023/01/31 09:29:12;;;;;;;20.75;4.90;;;6.00;99.90;;;;;;4076738;28;20130;-69
2023/01/31 09:31:15;;;;;;;21.73;4.88;;;6.10;99.90;;;;;;4067982;28;20721;-68
2023/01/31 09:33:16;;;;;;;17.58;4.50;;;6.10;99.90;;;;;;4070859;29;20032;-68
2023/01/31 09:35:18;;;;;;;15.55;4.93;;;6.10;99.90;;;;;;4071774;29;20048;-68
2023/01/31 09:37:18;;;;;;;18.88;4.70;;;6.10;99.90;;;;;;4066389;29;20040;-69
2023/01/31 09:39:19;;;;;;;20.20;4.85;;;6.20;99.90;;;;;;4070640;29;20043;-69
2023/01/31 09:41:46;;;;;;;23.08;4.63;;;6.10;99.90;;;;;;4069619;28;20565;-69
2023/01/31 09:43:52;;;;;;;16.38;4.50;;;6.20;99.90;;;;;;4071170;29;20047;-69
2023/01/31 09:45:57;;;;;;;17.17;4.60;;;6.20;99.90;;;;;;4068750;29;20036;-68
2023/01/31 09:48:00;;;;;;;17.55;5.05;;;6.20;99.90;;;;;;4070461;29;20043;-69
2023/01/31 09:50:42;;;;;;;21.08;4.93;;;6.30;99.90;;;;;;4069672;29;20472;-69
2023/01/31 09:52:42;;;;;;;22.00;4.75;;;6.30;99.90;;;;;;4071694;29;20150;-68
2023/01/31 09:54:44;;;;;;;23.63;5.25;;;6.30;99.90;;;;;;4071422;29;20533;-68
2023/01/31 09:57:01;;;;;;;19.83;4.75;;;6.30;99.90;;;;;;4072155;29;20046;-70
2023/01/31 09:59:24;;;;;;;19.63;4.65;;;6.30;99.90;;;;;;4071233;29;20051;-70
2023/01/31 10:01:34;;;;;;;19.98;4.65;;;6.30;99.90;;;;;;4071946;29;20039;-69
2023/01/31 10:03:44;;;;;;;18.15;4.65;;;6.30;99.90;;;;;;4069786;29;20087;-70
2023/01/31 10:05:59;;;;;;;16.40;4.38;;;6.40;99.90;;;;;;4070328;29;20174;-70
2023/01/31 10:08:10;;;;;;;17.45;4.63;;;6.30;99.90;;;;;;4072165;28;20043;-69
2023/01/31 10:10:16;;;;;;;20.73;4.55;;;6.40;99.90;;;;;;4088695;28;20056;-68
2023/01/31 10:12:33;;;;;;;16.42;4.07;;;6.40;99.90;;;;;;4090356;28;20039;-69
2023/01/31 10:14:56;;;;;;;15.65;4.20;;;6.50;99.90;;;;;;4092655;28;20044;-69
2023/01/31 10:17:15;;;;;;;14.38;4.13;;;6.50;99.90;;;;;;4091540;28;20051;-69
2023/01/31 10:19:22;;;;;;;15.77;4.10;;;6.50;99.90;;;;;;4089155;28;20031;-69
2023/01/31 10:21:29;;;;;;;15.73;4.63;;;6.60;99.90;;;;;;4090821;28;20047;-68
2023/01/31 10:24:03;;;;;;;15.23;4.05;;;6.60;99.90;;;;;;4091264;28;20134;-70
2023/01/31 10:26:12;;;;;;;18.75;4.40;;;6.60;99.90;;;;;;4076386;28;20035;-69
2023/01/31 10:28:20;;;;;;;12.85;3.42;;;6.60;99.90;;;;;;4088325;28;20067;-69
2023/01/31 10:30:26;;;;;;;18.27;4.65;;;6.60;99.90;;;;;;4091694;28;20046;-69
2023/01/31 10:32:35;;;;;;;15.80;4.18;;;6.70;99.90;;;;;;4090288;28;20031;-69
2023/01/31 10:34:42;;;;;;;20.30;3.95;;;6.70;99.90;;;;;;4089730;28;20069;-68
2023/01/31 10:36:53;;;;;;;17.58;4.20;;;6.80;99.90;;;;;;4089213;28;20047;-68
2023/01/31 10:39:22;;;;;;;21.20;4.78;;;6.80;99.90;;;;;;4088930;28;20031;-69
2023/01/31 10:41:35;;;;;;;21.88;4.57;;;6.80;99.90;;;;;;4089628;28;20035;-69
2023/01/31 10:43:43;;;;;;;13.48;4.15;;;6.90;99.90;;;;;;4089214;28;20040;-69
2023/01/31 10:45:43;;;;;;;17.33;4.43;;;6.90;99.90;;;;;;4089013;28;20044;-69
2023/01/31 10:47:50;;;;;;;14.48;4.07;;;7.00;99.90;;;;;;4090311;28;20031;-69
2023/01/31 10:49:51;;;;;;;15.65;4.35;;;7.00;99.90;;;;;;4092721;28;20153;-69
2023/01/31 10:52:09;;;;;;;15.77;3.97;;;7.10;99.90;;;;;;4092119;28;20046;-69
2023/01/31 10:54:40;;;;;;;25.58;4.75;;;7.20;99.90;;;;;;4087161;28;20241;-68